createdAt,value
2019-01-11T00:01:52.569Z,14.13
2019-01-11T00:04:21.878Z,16.50
2019-01-11T00:06:51.177Z,15.20
2019-01-11T00:09:21.385Z,12.33
2019-01-11T00:11:50.728Z,15.50
2019-01-11T00:14:20.024Z,14.87
2019-01-11T00:16:49.401Z,17.17
2019-01-11T00:19:18.695Z,15.40
2019-01-11T00:21:47.989Z,18.17
2019-01-11T00:24:17.303Z,13.70
2019-01-11T00:26:46.590Z,13.70
2019-01-11T00:29:15.861Z,13.27
2019-01-11T00:31:45.169Z,18.77
2019-01-11T00:34:14.525Z,14.30
2019-01-11T00:36:43.782Z,13.27
2019-01-11T00:39:13.077Z,15.87
2019-01-11T00:41:42.406Z,15.97
2019-01-11T00:44:11.753Z,15.13
2019-01-11T00:46:41.008Z,11.93
2019-01-11T00:49:13.492Z,12.43
2019-01-11T00:51:41.415Z,12.23
2019-01-11T00:54:10.699Z,11.97
2019-01-11T00:56:39.990Z,14.93
2019-01-11T00:59:09.288Z,13.77
2019-01-11T01:01:38.547Z,10.80
2019-01-11T01:04:07.828Z,11.23
2019-01-11T01:06:37.164Z,12.93
2019-01-11T01:09:09.122Z,10.83
2019-01-11T01:11:38.558Z,11.50
2019-01-11T01:14:08.462Z,14.43
2019-01-11T01:16:37.767Z,13.30
2019-01-11T01:19:07.069Z,11.93
2019-01-11T01:21:36.374Z,10.13
2019-01-11T01:24:05.784Z,14.23
2019-01-11T01:26:35.081Z,12.43
2019-01-11T01:29:04.378Z,15.53
2019-01-11T01:31:33.686Z,13.03
2019-01-11T01:34:02.951Z,13.37
2019-01-11T01:36:32.225Z,10.90
2019-01-11T01:39:02.456Z,10.80
2019-01-11T01:41:31.731Z,10.90
2019-01-11T01:44:01.072Z,14.87
2019-01-11T01:46:30.636Z,11.70
2019-01-11T01:48:59.951Z,10.47
2019-01-11T01:51:29.269Z,11.93
2019-01-11T01:53:58.907Z,13.33
2019-01-11T01:56:28.289Z,11.53
2019-01-11T01:58:57.611Z,15.47
2019-01-11T02:01:27.187Z,15.23
2019-01-11T02:03:59.255Z,14.40
2019-01-11T02:06:28.521Z,15.33
2019-01-11T02:08:57.790Z,13.27
2019-01-11T02:11:27.402Z,13.27
2019-01-11T02:13:56.698Z,14.98
2019-01-11T02:16:26.000Z,14.47
2019-01-11T02:18:55.422Z,13.93
2019-01-11T02:21:24.678Z,11.57
2019-01-11T02:23:54.000Z,12.80
2019-01-11T02:26:23.297Z,14.20
2019-01-11T02:28:52.650Z,13.77
2019-01-11T02:31:21.898Z,12.77
2019-01-11T02:33:51.199Z,12.50
2019-01-11T02:36:20.904Z,15.13
2019-01-11T02:38:50.203Z,12.20
2019-01-11T02:41:19.481Z,10.77
2019-01-11T02:43:49.235Z,13.93
2019-01-11T02:46:18.505Z,10.63
2019-01-11T02:48:47.769Z,11.17
2019-01-11T02:51:17.454Z,12.53
2019-01-11T02:53:46.779Z,12.63
2019-01-11T02:56:16.156Z,10.97
2019-01-11T02:58:45.457Z,10.73
2019-01-11T03:01:14.743Z,13.83
2019-01-11T03:03:44.110Z,10.57
2019-01-11T03:06:13.492Z,11.03
2019-01-11T03:08:42.804Z,11.50
2019-01-11T03:11:12.138Z,12.40
2019-01-11T03:13:41.502Z,12.00
2019-01-11T03:16:11.675Z,10.77
2019-01-11T03:18:40.957Z,11.17
2019-01-11T03:21:10.251Z,12.63
2019-01-11T03:23:39.559Z,11.67
2019-01-11T03:26:08.906Z,13.80
2019-01-11T03:28:38.207Z,12.73
2019-01-11T03:31:16.058Z,13.57
2019-01-11T03:33:45.354Z,13.47
2019-01-11T03:36:14.865Z,12.43
2019-01-11T03:38:44.140Z,12.80
2019-01-11T03:41:13.408Z,11.67
2019-01-11T03:43:42.693Z,10.93
2019-01-11T03:46:11.965Z,10.70
2019-01-11T03:48:41.339Z,11.03
2019-01-11T03:51:10.606Z,11.77
2019-01-11T03:53:40.514Z,12.63
2019-01-11T03:56:09.780Z,13.27
2019-01-11T03:58:39.738Z,13.00
2019-01-11T04:01:09.031Z,13.53
2019-01-11T04:03:38.341Z,14.40
2019-01-11T04:06:07.669Z,13.27
2019-01-11T04:08:37.184Z,13.87
2019-01-11T04:11:06.456Z,11.13
2019-01-11T04:13:35.745Z,12.27
2019-01-11T04:16:05.150Z,13.40
2019-01-11T04:18:36.113Z,12.27
2019-01-11T04:21:05.416Z,12.83
2019-01-11T04:23:34.709Z,15.07
2019-01-11T04:26:03.970Z,11.70
2019-01-11T04:28:33.235Z,11.70
2019-01-11T04:31:02.611Z,10.77
2019-01-11T04:33:31.939Z,12.30
2019-01-11T04:36:01.238Z,14.63
2019-01-11T04:38:30.540Z,12.27
2019-01-11T04:40:59.824Z,13.83
2019-01-11T04:43:29.143Z,12.13
2019-01-11T04:45:58.663Z,15.47
2019-01-11T04:48:28.100Z,14.10
2019-01-11T04:50:57.392Z,12.58
2019-01-11T04:53:26.699Z,13.17
2019-01-11T04:55:56.006Z,11.93
2019-01-11T04:58:25.271Z,10.03
2019-01-11T05:00:54.610Z,14.73
2019-01-11T05:03:23.862Z,12.47
2019-01-11T05:05:53.150Z,13.57
2019-01-11T05:08:22.453Z,11.93
2019-01-11T05:10:51.729Z,13.20
2019-01-11T05:13:40.718Z,16.27
2019-01-11T05:16:10.033Z,17.03
2019-01-11T05:18:39.374Z,12.87
2019-01-11T05:21:08.654Z,13.57
2019-01-11T05:23:37.988Z,11.87
2019-01-11T05:26:07.282Z,13.10
2019-01-11T05:28:37.086Z,12.47
2019-01-11T05:31:06.371Z,16.13
2019-01-11T05:33:36.123Z,14.67
2019-01-11T05:36:05.427Z,11.80
2019-01-11T05:38:34.737Z,11.33
2019-01-11T05:41:03.999Z,14.27
2019-01-11T05:43:33.417Z,16.00
2019-01-11T05:46:02.686Z,15.23
2019-01-11T05:48:31.953Z,15.00
2019-01-11T05:51:01.257Z,14.00
2019-01-11T05:53:30.503Z,13.27
2019-01-11T05:56:04.164Z,13.07
2019-01-11T05:58:36.928Z,14.23
2019-01-11T06:01:06.504Z,14.00
2019-01-11T06:03:36.182Z,16.70
2019-01-11T06:06:06.822Z,14.50
2019-01-11T06:08:36.646Z,15.87
2019-01-11T06:11:06.016Z,14.50
2019-01-11T06:13:35.370Z,13.77
2019-01-11T06:16:05.967Z,13.33
2019-01-11T06:18:35.251Z,16.27
2019-01-11T06:21:04.820Z,13.00
2019-01-11T06:23:34.095Z,14.17
2019-01-11T06:26:03.369Z,16.40
2019-01-11T06:28:32.751Z,15.13
2019-01-11T06:31:02.084Z,13.07
2019-01-11T06:33:31.402Z,11.83
2019-01-11T06:36:00.683Z,15.63
2019-01-11T06:38:30.152Z,12.90
2019-01-11T06:40:59.444Z,17.70
2019-01-11T06:43:28.715Z,14.13
2019-01-11T06:45:58.037Z,15.43
2019-01-11T06:48:46.296Z,12.30
2019-01-11T06:51:15.693Z,14.97
2019-01-11T06:53:45.139Z,17.30
2019-01-11T06:56:14.499Z,14.73
2019-01-11T06:58:43.813Z,15.97
2019-01-11T07:01:13.094Z,18.37
2019-01-11T07:03:42.413Z,15.47
2019-01-11T07:06:12.168Z,15.23
2019-01-11T07:08:41.451Z,17.00
2019-01-11T07:11:10.870Z,17.37
2019-01-11T07:13:40.228Z,16.93
2019-01-11T07:16:09.540Z,18.83
2019-01-11T07:18:39.056Z,17.70
2019-01-11T07:21:08.400Z,15.33
2019-01-11T07:23:37.749Z,18.80
2019-01-11T07:26:07.141Z,13.83
2019-01-11T07:28:36.439Z,20.67
2019-01-11T07:31:11.849Z,19.43
2019-01-11T07:33:44.000Z,15.57
2019-01-11T07:36:41.599Z,17.43
2019-01-11T07:39:26.987Z,18.87
2019-01-11T07:41:56.359Z,17.40
2019-01-11T07:44:26.599Z,19.87
2019-01-11T07:46:56.303Z,18.83
2019-01-11T07:49:25.674Z,14.57
2019-01-11T07:51:55.090Z,15.37
2019-01-11T07:54:24.722Z,16.60
2019-01-11T07:56:54.281Z,17.00
2019-01-11T07:59:23.986Z,21.00
2019-01-11T08:01:53.867Z,18.73
2019-01-11T08:04:23.193Z,18.00
2019-01-11T08:06:52.559Z,16.67
2019-01-11T08:09:21.886Z,15.93
2019-01-11T08:11:51.572Z,17.57
2019-01-11T08:14:20.896Z,15.53
2019-01-11T08:16:50.785Z,19.37
2019-01-11T08:19:20.115Z,17.00
2019-01-11T08:21:49.456Z,14.87
2019-01-11T08:24:18.786Z,15.93
2019-01-11T08:26:48.175Z,15.90
2019-01-11T08:29:17.486Z,17.43
2019-01-11T08:31:46.895Z,19.40
2019-01-11T08:34:16.246Z,19.70
2019-01-11T08:36:45.825Z,19.47
2019-01-11T08:39:15.146Z,19.67
2019-01-11T08:41:44.464Z,16.43
2019-01-11T08:44:13.811Z,15.77
2019-01-11T08:46:43.212Z,15.07
2019-01-11T08:49:12.542Z,15.73
2019-01-11T08:51:41.787Z,15.40
2019-01-11T08:54:11.097Z,15.60
2019-01-11T08:56:40.403Z,16.07
2019-01-11T08:59:09.764Z,16.80
2019-01-11T09:01:39.122Z,18.57
2019-01-11T09:04:08.457Z,15.93
2019-01-11T09:06:37.755Z,15.87
2019-01-11T09:09:09.040Z,17.73
2019-01-11T09:11:38.376Z,17.23
2019-01-11T09:14:09.579Z,16.07
2019-01-11T09:16:38.935Z,16.13
2019-01-11T09:19:09.095Z,19.30
2019-01-11T09:21:41.798Z,16.77
2019-01-11T09:24:09.376Z,18.43
2019-01-11T09:26:38.792Z,16.60
2019-01-11T09:29:08.111Z,13.57
2019-01-11T09:31:37.420Z,16.07
2019-01-11T09:34:06.719Z,15.43
2019-01-11T09:36:36.051Z,15.53
2019-01-11T09:39:08.698Z,17.50
2019-01-11T09:41:37.995Z,15.83
2019-01-11T09:44:07.331Z,14.43
2019-01-11T09:46:36.641Z,17.07
2019-01-11T09:49:05.911Z,15.17
2019-01-11T09:51:35.267Z,15.47
2019-01-11T09:54:04.924Z,12.87
2019-01-11T09:56:34.242Z,14.60
2019-01-11T09:59:03.568Z,13.60
2019-01-11T10:01:32.867Z,12.30
2019-01-11T10:04:02.122Z,13.85
2019-01-11T10:06:33.076Z,13.97
2019-01-11T10:09:02.362Z,14.60
2019-01-11T10:11:31.662Z,12.80
2019-01-11T10:14:00.954Z,12.37
2019-01-11T10:16:30.245Z,13.90
2019-01-11T10:18:59.597Z,14.57
2019-01-11T10:21:28.875Z,13.30
2019-01-11T10:23:58.225Z,14.03
2019-01-11T10:26:27.567Z,12.57
2019-01-11T10:28:56.866Z,12.30
2019-01-11T10:31:26.185Z,12.10
2019-01-11T10:33:55.493Z,13.30
2019-01-11T10:36:24.918Z,10.63
2019-01-11T10:38:54.280Z,10.67
2019-01-11T10:41:23.600Z,9.23
2019-01-11T10:43:52.894Z,10.00
2019-01-11T10:46:36.722Z,9.40
2019-01-11T10:49:06.023Z,9.67
2019-01-11T10:51:35.395Z,12.50
2019-01-11T10:54:05.452Z,10.70
2019-01-11T10:56:35.520Z,10.60
2019-01-11T10:59:04.848Z,9.90
2019-01-11T11:01:34.156Z,11.40
2019-01-11T11:04:03.492Z,11.00
2019-01-11T11:06:33.228Z,9.80
2019-01-11T11:09:02.513Z,9.07
2019-01-11T11:11:31.872Z,10.10
2019-01-11T11:14:01.179Z,11.67
2019-01-11T11:16:32.986Z,12.50
2019-01-11T11:19:01.566Z,9.77
2019-01-11T11:21:34.670Z,10.07
2019-01-11T11:24:01.955Z,10.43
2019-01-11T11:26:31.332Z,10.90
2019-01-11T11:29:00.980Z,10.60
2019-01-11T11:31:30.410Z,10.83
2019-01-11T11:33:59.763Z,12.27
2019-01-11T11:36:29.089Z,10.20
2019-01-11T11:38:58.392Z,10.87
2019-01-11T11:41:32.061Z,9.77
2019-01-11T11:44:01.460Z,10.93
2019-01-11T11:46:30.795Z,10.37
2019-01-11T11:49:00.138Z,12.90
2019-01-11T11:51:29.463Z,14.07
2019-01-11T11:53:58.878Z,13.80
2019-01-11T11:56:28.197Z,17.20
2019-01-11T11:58:57.512Z,14.03
2019-01-11T12:01:26.965Z,16.40
2019-01-11T12:03:56.532Z,16.13
2019-01-11T12:06:25.822Z,20.33
2019-01-11T12:08:55.215Z,18.42
2019-01-11T12:11:24.553Z,20.60
2019-01-11T12:13:53.864Z,21.63
2019-01-11T12:16:23.143Z,17.57
2019-01-11T12:18:52.564Z,22.50
2019-01-11T12:21:21.910Z,19.73
2019-01-11T12:23:51.256Z,19.50
2019-01-11T12:26:21.816Z,19.67
2019-01-11T12:29:28.826Z,21.80
2019-01-11T12:32:50.783Z,16.87
2019-01-11T12:35:59.012Z,20.73
2019-01-11T12:38:59.755Z,19.53
2019-01-11T12:42:05.687Z,19.63
2019-01-11T12:45:10.988Z,21.53
2019-01-11T12:47:47.903Z,22.50
2019-01-11T12:54:19.408Z,21.80
2019-01-11T13:00:20.630Z,19.77
2019-01-11T13:03:35.739Z,21.60
2019-01-11T13:06:31.171Z,19.63
2019-01-11T13:09:34.862Z,18.23
2019-01-11T13:12:23.440Z,18.23
2019-01-11T13:15:18.010Z,19.43
2019-01-11T13:18:19.863Z,22.43
2019-01-11T13:21:42.357Z,21.23
2019-01-11T13:24:35.382Z,21.47
2019-01-11T13:27:05.286Z,18.60
2019-01-11T13:29:34.633Z,19.07
2019-01-11T13:32:03.991Z,20.83
2019-01-11T13:34:33.313Z,17.23
2019-01-11T13:37:02.982Z,17.80
2019-01-11T13:39:32.366Z,21.20
2019-01-11T13:42:01.790Z,24.20
2019-01-11T13:44:31.324Z,24.87
2019-01-11T13:47:00.919Z,22.67
2019-01-11T13:49:30.331Z,20.17
2019-01-11T13:51:59.685Z,21.33
2019-01-11T13:54:29.331Z,24.47
2019-01-11T13:56:58.681Z,21.80
2019-01-11T13:59:31.841Z,24.47
2019-01-11T14:02:01.557Z,22.20
2019-01-11T14:04:36.983Z,25.37
2019-01-11T14:07:06.347Z,22.93
2019-01-11T14:09:37.378Z,25.20
2019-01-11T14:12:06.686Z,22.20
2019-01-11T14:14:35.991Z,25.40
2019-01-11T14:17:05.319Z,21.67
2019-01-11T14:19:34.635Z,20.00
2019-01-11T14:22:04.286Z,23.93
2019-01-11T14:24:33.624Z,22.10
2019-01-11T14:27:02.929Z,20.30
2019-01-11T14:29:32.307Z,22.00
2019-01-11T14:32:05.555Z,19.93
2019-01-11T14:34:34.882Z,22.10
2019-01-11T14:37:04.210Z,21.10
2019-01-11T14:39:33.574Z,17.10
2019-01-11T14:42:02.953Z,21.57
2019-01-11T14:44:32.280Z,21.13
2019-01-11T14:47:01.931Z,18.43
2019-01-11T14:49:31.474Z,18.55
2019-01-11T14:52:00.943Z,16.10
2019-01-11T14:54:30.568Z,17.73
2019-01-11T14:56:59.923Z,18.33
2019-01-11T14:59:29.301Z,20.27
2019-01-11T15:01:59.012Z,18.23
2019-01-11T15:04:28.439Z,20.83
2019-01-11T15:06:57.788Z,17.53
2019-01-11T15:09:27.133Z,18.33
2019-01-11T15:11:56.540Z,18.50
2019-01-11T15:14:25.884Z,19.37
2019-01-11T15:16:55.230Z,20.23
2019-01-11T15:19:42.569Z,18.93
2019-01-11T15:22:12.187Z,21.87
2019-01-11T15:24:41.561Z,20.57
2019-01-11T15:27:15.659Z,20.57
2019-01-11T15:32:41.254Z,23.90
2019-01-11T15:35:10.730Z,21.57
2019-01-11T15:37:40.042Z,20.77
2019-01-11T15:40:14.272Z,21.63
2019-01-11T15:42:43.630Z,22.50
2019-01-11T15:45:13.684Z,24.63
2019-01-11T15:47:45.494Z,22.40
2019-01-11T15:50:36.054Z,23.40
2019-01-11T15:53:05.605Z,25.03
2019-01-11T15:55:35.061Z,23.27
2019-01-11T15:58:04.423Z,22.83
2019-01-11T16:00:36.631Z,23.50
2019-01-11T16:03:06.043Z,29.00
2019-01-11T16:05:35.419Z,27.50
2019-01-11T16:08:07.817Z,23.93
2019-01-11T16:10:37.280Z,22.53
2019-01-11T16:13:31.719Z,26.83
2019-01-11T16:16:35.841Z,24.53
2019-01-11T16:19:05.864Z,22.53
2019-01-11T16:21:35.505Z,26.10
2019-01-11T16:24:05.418Z,27.30
2019-01-11T16:26:34.875Z,26.40
2019-01-11T16:29:04.495Z,26.90
2019-01-11T16:31:33.908Z,29.57
2019-01-11T16:34:03.530Z,23.70
2019-01-11T16:36:32.954Z,25.70
2019-01-11T16:39:02.369Z,21.90
2019-01-11T16:41:31.783Z,26.60
2019-01-11T16:44:01.448Z,23.37
2019-01-11T16:46:30.891Z,24.10
2019-01-11T16:49:00.199Z,24.93
2019-01-11T16:51:29.627Z,25.93
2019-01-11T16:53:58.925Z,20.63
2019-01-11T16:56:28.249Z,23.53
2019-01-11T16:58:57.574Z,23.23
2019-01-11T17:01:26.894Z,20.67
2019-01-11T17:03:56.194Z,18.33
2019-01-11T17:06:25.525Z,20.97
2019-01-11T17:08:54.830Z,18.90
2019-01-11T17:11:24.172Z,27.13
2019-01-11T17:13:53.544Z,27.33
2019-01-11T17:16:22.856Z,26.23
2019-01-11T17:18:52.281Z,25.20
2019-01-11T17:21:21.596Z,27.40
2019-01-11T17:23:50.875Z,26.27
2019-01-11T17:26:20.265Z,24.57
2019-01-11T17:28:49.615Z,23.30
2019-01-11T17:31:18.898Z,28.80
2019-01-11T17:33:48.318Z,24.47
2019-01-11T17:36:17.598Z,25.57
2019-01-11T17:38:46.923Z,22.83
2019-01-11T17:41:16.237Z,23.70
2019-01-11T17:43:45.550Z,21.60
2019-01-11T17:46:14.854Z,23.23
2019-01-11T17:48:44.307Z,22.43
2019-01-11T17:51:13.699Z,23.70
2019-01-11T17:53:43.019Z,24.53
2019-01-11T17:56:12.680Z,21.60
2019-01-11T17:58:42.218Z,22.60
2019-01-11T18:01:11.519Z,20.20
2019-01-11T18:03:40.858Z,22.57
2019-01-11T18:06:10.158Z,18.33
2019-01-11T18:08:39.519Z,18.60
2019-01-11T18:11:08.830Z,21.53
2019-01-11T18:13:38.224Z,20.45
2019-01-11T18:16:07.627Z,19.80
2019-01-11T18:18:36.934Z,18.60
2019-01-11T18:21:06.251Z,20.17
2019-01-11T18:23:35.567Z,19.92
2019-01-11T18:26:04.949Z,16.27
2019-01-11T18:28:34.294Z,15.10
2019-01-11T18:31:03.807Z,14.80
2019-01-11T18:33:33.219Z,14.50
2019-01-11T18:36:02.523Z,11.97
2019-01-11T18:38:31.833Z,15.90
2019-01-11T18:41:01.186Z,13.80
2019-01-11T18:43:30.562Z,15.63
2019-01-11T18:45:59.966Z,17.13
2019-01-11T18:48:29.306Z,17.23
2019-01-11T18:51:00.792Z,16.37
2019-01-11T18:53:30.163Z,17.97
2019-01-11T18:56:05.191Z,19.30
2019-01-11T18:58:30.442Z,18.30
2019-01-11T19:00:59.828Z,16.17
2019-01-11T19:03:29.213Z,22.90
2019-01-11T19:05:58.645Z,19.10
2019-01-11T19:08:28.042Z,18.93
2019-01-11T19:10:57.354Z,18.20
2019-01-11T19:13:29.082Z,20.33
2019-01-11T19:16:01.306Z,17.73
2019-01-11T19:18:32.164Z,22.23
2019-01-11T19:21:03.102Z,19.63
2019-01-11T19:23:32.459Z,21.03
2019-01-11T19:26:01.839Z,22.67
2019-01-11T19:28:31.279Z,19.20
2019-01-11T19:31:01.068Z,21.03
2019-01-11T19:33:39.224Z,23.40
2019-01-11T19:36:08.648Z,19.37
2019-01-11T19:38:38.046Z,18.67
2019-01-11T19:41:07.383Z,21.23
2019-01-11T19:43:37.060Z,19.17
2019-01-11T19:46:06.493Z,17.27
2019-01-11T19:48:35.819Z,20.87
2019-01-11T19:51:05.288Z,17.80
2019-01-11T19:53:34.757Z,21.17
2019-01-11T19:56:04.206Z,21.93
2019-01-11T19:58:33.602Z,20.50
2019-01-11T20:01:03.019Z,22.97
2019-01-11T20:03:32.502Z,23.85
2019-01-11T20:06:01.910Z,21.37
2019-01-11T20:08:31.310Z,23.00
2019-01-11T20:11:00.751Z,20.10
2019-01-11T20:13:30.057Z,19.53
2019-01-11T20:15:59.705Z,23.73
2019-01-11T20:18:29.133Z,17.30
2019-01-11T20:20:58.484Z,19.93
2019-01-11T20:23:34.455Z,18.17
2019-01-11T20:25:58.908Z,19.10
2019-01-11T20:28:28.333Z,20.80
2019-01-11T20:30:57.620Z,22.13
2019-01-11T20:33:26.902Z,17.73
2019-01-11T20:35:56.307Z,14.03
2019-01-11T20:38:25.622Z,13.27
2019-01-11T20:40:54.963Z,13.00
2019-01-11T20:43:24.270Z,12.80
2019-01-11T20:45:53.622Z,12.43
2019-01-11T20:48:23.085Z,14.87
2019-01-11T20:50:52.450Z,19.20
2019-01-11T20:53:22.154Z,14.77
2019-01-11T20:55:51.516Z,18.13
2019-01-11T20:58:20.819Z,17.87
2019-01-11T21:00:50.181Z,18.17
2019-01-11T21:03:19.505Z,19.13
2019-01-11T21:05:48.804Z,22.90
2019-01-11T21:08:18.166Z,22.67
2019-01-11T21:10:47.477Z,22.40
2019-01-11T21:13:16.851Z,19.57
2019-01-11T21:15:46.172Z,18.80
2019-01-11T21:18:15.525Z,18.97
2019-01-11T21:20:44.852Z,18.03
2019-01-11T21:23:14.199Z,21.03
2019-01-11T21:25:43.642Z,21.37
2019-01-11T21:28:13.022Z,22.87
2019-01-11T21:30:42.390Z,20.13
2019-01-11T21:33:11.707Z,22.43
2019-01-11T21:35:41.044Z,20.10
2019-01-11T21:38:10.395Z,20.27
2019-01-11T21:40:39.942Z,19.53
2019-01-11T21:43:09.295Z,18.67
2019-01-11T21:45:38.651Z,19.13
2019-01-11T21:48:07.972Z,19.27
2019-01-11T21:50:37.266Z,18.93
2019-01-11T21:53:06.592Z,21.53
2019-01-11T21:55:35.941Z,19.03
2019-01-11T21:58:05.579Z,18.27
2019-01-11T22:00:43.206Z,23.43
2019-01-11T22:03:22.486Z,19.47
2019-01-11T22:05:51.835Z,15.97
2019-01-11T22:08:21.215Z,17.20
2019-01-11T22:10:50.664Z,18.97
2019-01-11T22:13:20.344Z,19.63
2019-01-11T22:15:49.779Z,18.33
2019-01-11T22:18:19.057Z,18.40
2019-01-11T22:20:48.361Z,22.58
2019-01-11T22:23:23.869Z,17.37
2019-01-11T22:25:48.909Z,18.97
2019-01-11T22:28:18.298Z,17.27
2019-01-11T22:30:47.721Z,21.57
2019-01-11T22:33:17.144Z,19.93
2019-01-11T22:35:46.595Z,20.60
2019-01-11T22:38:15.972Z,20.83
2019-01-11T22:40:45.376Z,20.20
2019-01-11T22:43:14.829Z,22.53
2019-01-11T22:45:44.456Z,20.43
2019-01-11T22:48:13.863Z,18.57
2019-01-11T22:50:43.250Z,19.67
2019-01-11T22:53:12.635Z,16.90
2019-01-11T22:55:42.004Z,20.23
2019-01-11T22:58:11.451Z,16.97
2019-01-11T23:01:18.308Z,19.03
2019-01-11T23:03:50.664Z,16.03
2019-01-11T23:06:32.584Z,19.57
2019-01-11T23:09:02.386Z,18.33
2019-01-11T23:12:12.478Z,19.60
2019-01-11T23:14:42.026Z,18.30
2019-01-11T23:17:37.138Z,16.20
2019-01-11T23:20:08.649Z,16.60
2019-01-11T23:22:38.079Z,11.30
2019-01-11T23:25:07.941Z,15.33
2019-01-11T23:27:37.277Z,16.10
2019-01-11T23:30:10.438Z,15.67
2019-01-11T23:32:39.784Z,17.87
2019-01-11T23:35:09.313Z,12.30
2019-01-11T23:37:38.875Z,13.70
2019-01-11T23:40:10.258Z,16.80
2019-01-11T23:42:39.589Z,14.60
2019-01-11T23:45:10.095Z,14.93
2019-01-11T23:47:39.430Z,12.23
2019-01-11T23:50:11.834Z,14.93
2019-01-11T23:52:41.240Z,13.50
2019-01-11T23:55:11.114Z,16.77
2019-01-11T23:57:40.444Z,14.53
